Main page
METAR-TAF:

METAR-TAF

Airports :

Charles B. Wheeler Downtown Airport

Kansas City, Missouri, United States

latitude: 39-07-15N, longitude: 094-35-49W, elevation: 758 ft

Current weather observation

The report was made 54 minutes ago, at 22:54 UTC
Wind 18 mph from the South
Temperature 84°F
Humidity 48%
Pressure 30.01 in. Hg
Visibility: 10 miles
Clear sky

METAR: KMKC 012254Z 18016KT 10SM CLR 29/17 A3001 RMK AO2 SLP153 T02890167

Time: 18:48 (23:48 UTC)

Forecast

The report was made 28 minutes ago, at 23:20 UTC
Forecast valid from 02 at 00 UTC to 02 at 24 UTC
Wind 17 mph from the South/Southwest with gusts up to 29 mph
Visibility: 6 miles
Scattered clouds at a height of 15000 ft
From 02 at 0200 UTC
Wind 12 mph from the South/Southwest
Visibility: 6 miles
Scattered clouds at a height of 20000 ft

TAF: KMKC 012320Z 0200/0224 20015G25KT P6SM SCT150 FM020200 20010KT P6SM SCT200

Weather observations and forecasts of more than 4000 airports (METAR and TAF reports).

The available stations are represented by yellow and red dots on the map.

Hover mouse over dot to see the name of the station.

Then click to see weather observations and forecasts.

To change the map : click on the green buttons with a black cross to zoom in, on the green button with a dash to zoom out, or on the green arrows for adjacent maps.


METAR-TAF: